sensor_id;sensor_type;location;lat;lon;timestamp;P1;durP1;ratioP1;P2;durP2;ratioP2
15573;SDS011;7888;46.748;8.102;2023-09-30T00:01:00;7.47;;;4.95;;
15573;SDS011;7888;46.748;8.102;2023-09-30T00:03:27;7.55;;;4.60;;
15573;SDS011;7888;46.748;8.102;2023-09-30T00:05:53;5.97;;;5.15;;
15573;SDS011;7888;46.748;8.102;2023-09-30T00:08:20;7.70;;;5.22;;
15573;SDS011;7888;46.748;8.102;2023-09-30T00:10:45;10.00;;;5.85;;
15573;SDS011;7888;46.748;8.102;2023-09-30T00:13:12;8.00;;;5.38;;
15573;SDS011;7888;46.748;8.102;2023-09-30T00:15:38;7.82;;;5.53;;
15573;SDS011;7888;46.748;8.102;2023-09-30T00:18:04;8.30;;;5.40;;
15573;SDS011;7888;46.748;8.102;2023-09-30T00:20:30;7.82;;;5.57;;
15573;SDS011;7888;46.748;8.102;2023-09-30T00:22:56;8.52;;;5.75;;
15573;SDS011;7888;46.748;8.102;2023-09-30T00:25:22;7.90;;;5.47;;
15573;SDS011;7888;46.748;8.102;2023-09-30T00:27:48;8.43;;;5.65;;
15573;SDS011;7888;46.748;8.102;2023-09-30T00:30:14;8.48;;;5.95;;
15573;SDS011;7888;46.748;8.102;2023-09-30T00:32:41;9.07;;;6.20;;
15573;SDS011;7888;46.748;8.102;2023-09-30T00:35:07;9.73;;;6.00;;
15573;SDS011;7888;46.748;8.102;2023-09-30T00:37:37;9.13;;;6.15;;
15573;SDS011;7888;46.748;8.102;2023-09-30T00:40:04;8.32;;;5.88;;
15573;SDS011;7888;46.748;8.102;2023-09-30T00:42:31;9.80;;;6.68;;
15573;SDS011;7888;46.748;8.102;2023-09-30T00:44:57;8.27;;;5.80;;
15573;SDS011;7888;46.748;8.102;2023-09-30T00:47:23;9.80;;;6.75;;
15573;SDS011;7888;46.748;8.102;2023-09-30T00:49:52;9.07;;;6.38;;
15573;SDS011;7888;46.748;8.102;2023-09-30T00:52:18;9.60;;;6.80;;
15573;SDS011;7888;46.748;8.102;2023-09-30T00:54:45;10.20;;;6.75;;
15573;SDS011;7888;46.748;8.102;2023-09-30T00:57:12;10.00;;;6.57;;
15573;SDS011;7888;46.748;8.102;2023-09-30T00:59:39;11.43;;;6.70;;
15573;SDS011;7888;46.748;8.102;2023-09-30T01:02:06;12.65;;;7.03;;
15573;SDS011;7888;46.748;8.102;2023-09-30T01:04:32;9.07;;;6.72;;
15573;SDS011;7888;46.748;8.102;2023-09-30T01:06:58;10.43;;;6.75;;
15573;SDS011;7888;46.748;8.102;2023-09-30T01:09:24;12.77;;;7.25;;
15573;SDS011;7888;46.748;8.102;2023-09-30T01:11:50;9.18;;;7.05;;
15573;SDS011;7888;46.748;8.102;2023-09-30T01:14:26;10.23;;;7.10;;
15573;SDS011;7888;46.748;8.102;2023-09-30T01:16:55;10.70;;;6.65;;
15573;SDS011;7888;46.748;8.102;2023-09-30T01:19:21;11.07;;;7.32;;
15573;SDS011;7888;46.748;8.102;2023-09-30T01:21:52;13.30;;;7.75;;
15573;SDS011;7888;46.748;8.102;2023-09-30T01:24:24;14.63;;;8.38;;
15573;SDS011;7888;46.748;8.102;2023-09-30T01:26:53;12.95;;;8.13;;
15573;SDS011;7888;46.748;8.102;2023-09-30T01:29:19;12.20;;;7.78;;
15573;SDS011;7888;46.748;8.102;2023-09-30T01:31:50;14.63;;;9.10;;
15573;SDS011;7888;46.748;8.102;2023-09-30T01:34:16;12.93;;;8.15;;
15573;SDS011;7888;46.748;8.102;2023-09-30T01:36:43;12.07;;;7.22;;
15573;SDS011;7888;46.748;8.102;2023-09-30T01:39:09;12.18;;;7.60;;
15573;SDS011;7888;46.748;8.102;2023-09-30T01:41:36;12.55;;;8.30;;
15573;SDS011;7888;46.748;8.102;2023-09-30T01:44:03;14.38;;;8.25;;
15573;SDS011;7888;46.748;8.102;2023-09-30T01:46:30;10.80;;;7.13;;
15573;SDS011;7888;46.748;8.102;2023-09-30T01:48:55;14.30;;;8.52;;
15573;SDS011;7888;46.748;8.102;2023-09-30T01:51:21;13.02;;;7.65;;
15573;SDS011;7888;46.748;8.102;2023-09-30T01:53:47;11.10;;;7.45;;
15573;SDS011;7888;46.748;8.102;2023-09-30T01:56:13;10.60;;;7.05;;
15573;SDS011;7888;46.748;8.102;2023-09-30T01:58:39;12.63;;;6.93;;
15573;SDS011;7888;46.748;8.102;2023-09-30T02:01:05;9.82;;;6.43;;
15573;SDS011;7888;46.748;8.102;2023-09-30T02:03:31;12.50;;;7.28;;
15573;SDS011;7888;46.748;8.102;2023-09-30T02:05:57;12.82;;;6.82;;
15573;SDS011;7888;46.748;8.102;2023-09-30T02:08:23;12.30;;;7.30;;
15573;SDS011;7888;46.748;8.102;2023-09-30T02:10:49;10.23;;;6.70;;
15573;SDS011;7888;46.748;8.102;2023-09-30T02:13:18;9.18;;;6.13;;
15573;SDS011;7888;46.748;8.102;2023-09-30T02:15:45;10.63;;;6.20;;
15573;SDS011;7888;46.748;8.102;2023-09-30T02:18:11;11.00;;;6.63;;
15573;SDS011;7888;46.748;8.102;2023-09-30T02:20:37;10.77;;;6.60;;
15573;SDS011;7888;46.748;8.102;2023-09-30T02:23:10;10.30;;;6.32;;
15573;SDS011;7888;46.748;8.102;2023-09-30T02:25:38;11.52;;;7.10;;
15573;SDS011;7888;46.748;8.102;2023-09-30T02:28:08;11.70;;;6.85;;
15573;SDS011;7888;46.748;8.102;2023-09-30T02:30:34;11.75;;;6.72;;
15573;SDS011;7888;46.748;8.102;2023-09-30T02:33:01;11.63;;;7.20;;
15573;SDS011;7888;46.748;8.102;2023-09-30T02:35:28;12.75;;;7.57;;
15573;SDS011;7888;46.748;8.102;2023-09-30T02:37:54;11.90;;;7.13;;
15573;SDS011;7888;46.748;8.102;2023-09-30T02:40:20;12.70;;;7.72;;
15573;SDS011;7888;46.748;8.102;2023-09-30T02:42:45;10.85;;;6.70;;
15573;SDS011;7888;46.748;8.102;2023-09-30T02:45:13;11.70;;;7.10;;
15573;SDS011;7888;46.748;8.102;2023-09-30T02:47:42;12.32;;;7.35;;
15573;SDS011;7888;46.748;8.102;2023-09-30T02:50:08;10.68;;;7.00;;
15573;SDS011;7888;46.748;8.102;2023-09-30T02:52:39;13.68;;;7.18;;
15573;SDS011;7888;46.748;8.102;2023-09-30T02:55:11;10.32;;;6.60;;
15573;SDS011;7888;46.748;8.102;2023-09-30T02:57:38;10.63;;;6.68;;
15573;SDS011;7888;46.748;8.102;2023-09-30T03:00:05;12.20;;;6.53;;
15573;SDS011;7888;46.748;8.102;2023-09-30T03:02:53;9.15;;;6.18;;
15573;SDS011;7888;46.748;8.102;2023-09-30T03:05:20;12.70;;;6.95;;
15573;SDS011;7888;46.748;8.102;2023-09-30T03:07:48;11.00;;;6.70;;
15573;SDS011;7888;46.748;8.102;2023-09-30T03:10:17;9.98;;;6.72;;
15573;SDS011;7888;46.748;8.102;2023-09-30T03:12:51;9.70;;;6.53;;
15573;SDS011;7888;46.748;8.102;2023-09-30T03:15:20;12.48;;;7.30;;
15573;SDS011;7888;46.748;8.102;2023-09-30T03:17:46;11.43;;;7.43;;
15573;SDS011;7888;46.748;8.102;2023-09-30T03:20:15;9.70;;;6.03;;
15573;SDS011;7888;46.748;8.102;2023-09-30T03:22:44;10.07;;;6.03;;
15573;SDS011;7888;46.748;8.102;2023-09-30T03:25:14;11.00;;;6.90;;
15573;SDS011;7888;46.748;8.102;2023-09-30T03:27:43;12.77;;;7.93;;
15573;SDS011;7888;46.748;8.102;2023-09-30T03:30:13;10.10;;;7.00;;
15573;SDS011;7888;46.748;8.102;2023-09-30T03:32:40;15.35;;;8.45;;
15573;SDS011;7888;46.748;8.102;2023-09-30T03:35:07;15.85;;;9.70;;
15573;SDS011;7888;46.748;8.102;2023-09-30T03:37:42;13.60;;;8.57;;
15573;SDS011;7888;46.748;8.102;2023-09-30T03:40:10;14.95;;;8.63;;
15573;SDS011;7888;46.748;8.102;2023-09-30T03:42:39;12.73;;;7.75;;
15573;SDS011;7888;46.748;8.102;2023-09-30T03:45:08;11.55;;;7.30;;
15573;SDS011;7888;46.748;8.102;2023-09-30T03:47:36;13.65;;;8.25;;
15573;SDS011;7888;46.748;8.102;2023-09-30T03:50:03;13.23;;;7.10;;
15573;SDS011;7888;46.748;8.102;2023-09-30T03:52:30;11.88;;;6.75;;
15573;SDS011;7888;46.748;8.102;2023-09-30T03:54:59;11.65;;;6.53;;
15573;SDS011;7888;46.748;8.102;2023-09-30T03:57:30;11.02;;;7.15;;
15573;SDS011;7888;46.748;8.102;2023-09-30T03:59:58;12.82;;;7.53;;
15573;SDS011;7888;46.748;8.102;2023-09-30T04:02:25;11.82;;;7.47;;
15573;SDS011;7888;46.748;8.102;2023-09-30T04:04:52;14.27;;;7.30;;
15573;SDS011;7888;46.748;8.102;2023-09-30T04:07:20;12.13;;;6.82;;
15573;SDS011;7888;46.748;8.102;2023-09-30T04:09:46;12.35;;;7.47;;
15573;SDS011;7888;46.748;8.102;2023-09-30T04:12:12;12.25;;;7.43;;
15573;SDS011;7888;46.748;8.102;2023-09-30T04:14:38;11.65;;;7.05;;
15573;SDS011;7888;46.748;8.102;2023-09-30T04:17:04;13.38;;;7.70;;
15573;SDS011;7888;46.748;8.102;2023-09-30T04:19:30;11.60;;;6.88;;
15573;SDS011;7888;46.748;8.102;2023-09-30T04:21:56;12.27;;;7.15;;
15573;SDS011;7888;46.748;8.102;2023-09-30T04:24:22;10.45;;;7.05;;
15573;SDS011;7888;46.748;8.102;2023-09-30T04:26:47;11.75;;;7.32;;
15573;SDS011;7888;46.748;8.102;2023-09-30T04:29:15;13.20;;;7.70;;
15573;SDS011;7888;46.748;8.102;2023-09-30T04:31:41;9.90;;;7.10;;
15573;SDS011;7888;46.748;8.102;2023-09-30T04:34:07;12.35;;;7.30;;
15573;SDS011;7888;46.748;8.102;2023-09-30T04:36:33;10.88;;;6.80;;
15573;SDS011;7888;46.748;8.102;2023-09-30T04:39:00;11.50;;;6.65;;
15573;SDS011;7888;46.748;8.102;2023-09-30T04:41:26;12.25;;;6.95;;
15573;SDS011;7888;46.748;8.102;2023-09-30T04:43:52;12.43;;;6.88;;
15573;SDS011;7888;46.748;8.102;2023-09-30T04:46:17;9.90;;;6.65;;
15573;SDS011;7888;46.748;8.102;2023-09-30T04:48:47;11.65;;;7.00;;
15573;SDS011;7888;46.748;8.102;2023-09-30T04:51:13;11.43;;;6.80;;
15573;SDS011;7888;46.748;8.102;2023-09-30T04:53:41;11.00;;;6.70;;
15573;SDS011;7888;46.748;8.102;2023-09-30T04:56:07;11.65;;;7.13;;
15573;SDS011;7888;46.748;8.102;2023-09-30T04:58:33;10.43;;;6.90;;
15573;SDS011;7888;46.748;8.102;2023-09-30T05:00:58;11.02;;;6.75;;
15573;SDS011;7888;46.748;8.102;2023-09-30T05:03:24;11.65;;;7.25;;
15573;SDS011;7888;46.748;8.102;2023-09-30T05:05:51;10.48;;;6.78;;
15573;SDS011;7888;46.748;8.102;2023-09-30T05:08:22;11.85;;;7.13;;
15573;SDS011;7888;46.748;8.102;2023-09-30T05:10:49;11.30;;;7.07;;
15573;SDS011;7888;46.748;8.102;2023-09-30T05:13:15;10.45;;;6.43;;
15573;SDS011;7888;46.748;8.102;2023-09-30T05:15:41;11.57;;;7.25;;
15573;SDS011;7888;46.748;8.102;2023-09-30T05:18:07;11.57;;;6.88;;
15573;SDS011;7888;46.748;8.102;2023-09-30T05:20:34;11.50;;;6.75;;
15573;SDS011;7888;46.748;8.102;2023-09-30T05:23:03;12.30;;;6.82;;
15573;SDS011;7888;46.748;8.102;2023-09-30T05:25:28;13.13;;;7.38;;
15573;SDS011;7888;46.748;8.102;2023-09-30T05:27:54;11.65;;;7.38;;
15573;SDS011;7888;46.748;8.102;2023-09-30T05:30:20;12.25;;;7.32;;
15573;SDS011;7888;46.748;8.102;2023-09-30T05:32:46;11.95;;;6.80;;
15573;SDS011;7888;46.748;8.102;2023-09-30T05:35:12;10.70;;;6.97;;
15573;SDS011;7888;46.748;8.102;2023-09-30T05:37:44;10.95;;;6.68;;
15573;SDS011;7888;46.748;8.102;2023-09-30T05:40:10;11.20;;;6.82;;
15573;SDS011;7888;46.748;8.102;2023-09-30T05:42:47;11.95;;;6.80;;
15573;SDS011;7888;46.748;8.102;2023-09-30T05:45:14;10.07;;;6.43;;
15573;SDS011;7888;46.748;8.102;2023-09-30T05:47:40;9.77;;;6.32;;
15573;SDS011;7888;46.748;8.102;2023-09-30T05:50:07;11.40;;;6.85;;
15573;SDS011;7888;46.748;8.102;2023-09-30T05:52:34;12.48;;;7.15;;
15573;SDS011;7888;46.748;8.102;2023-09-30T05:55:01;11.65;;;6.90;;
15573;SDS011;7888;46.748;8.102;2023-09-30T05:57:27;11.90;;;6.97;;
15573;SDS011;7888;46.748;8.102;2023-09-30T05:59:53;10.73;;;6.53;;
15573;SDS011;7888;46.748;8.102;2023-09-30T06:02:19;9.93;;;6.38;;
15573;SDS011;7888;46.748;8.102;2023-09-30T06:04:45;11.50;;;7.05;;
15573;SDS011;7888;46.748;8.102;2023-09-30T06:07:11;11.23;;;6.63;;
15573;SDS011;7888;46.748;8.102;2023-09-30T06:09:37;12.13;;;6.93;;
15573;SDS011;7888;46.748;8.102;2023-09-30T06:12:03;12.30;;;6.93;;
15573;SDS011;7888;46.748;8.102;2023-09-30T06:14:32;11.48;;;6.75;;
15573;SDS011;7888;46.748;8.102;2023-09-30T06:16:58;12.27;;;6.50;;
15573;SDS011;7888;46.748;8.102;2023-09-30T06:19:24;11.10;;;6.40;;
15573;SDS011;7888;46.748;8.102;2023-09-30T06:21:51;12.38;;;7.05;;
15573;SDS011;7888;46.748;8.102;2023-09-30T06:24:17;14.68;;;7.15;;
15573;SDS011;7888;46.748;8.102;2023-09-30T06:26:45;13.05;;;6.32;;
15573;SDS011;7888;46.748;8.102;2023-09-30T06:29:13;11.43;;;6.10;;
15573;SDS011;7888;46.748;8.102;2023-09-30T06:31:39;11.02;;;6.47;;
15573;SDS011;7888;46.748;8.102;2023-09-30T06:34:05;12.90;;;6.85;;
15573;SDS011;7888;46.748;8.102;2023-09-30T06:36:32;10.23;;;6.68;;
15573;SDS011;7888;46.748;8.102;2023-09-30T06:38:57;11.70;;;6.80;;
15573;SDS011;7888;46.748;8.102;2023-09-30T06:41:24;10.70;;;6.75;;
15573;SDS011;7888;46.748;8.102;2023-09-30T06:43:50;11.20;;;6.05;;
15573;SDS011;7888;46.748;8.102;2023-09-30T06:46:17;11.70;;;6.70;;
15573;SDS011;7888;46.748;8.102;2023-09-30T06:48:43;10.90;;;6.30;;
15573;SDS011;7888;46.748;8.102;2023-09-30T06:51:13;9.75;;;5.95;;
15573;SDS011;7888;46.748;8.102;2023-09-30T06:53:42;9.35;;;5.65;;
15573;SDS011;7888;46.748;8.102;2023-09-30T06:56:10;12.88;;;6.20;;
15573;SDS011;7888;46.748;8.102;2023-09-30T06:58:37;13.73;;;6.75;;
15573;SDS011;7888;46.748;8.102;2023-09-30T07:01:03;9.63;;;6.40;;
15573;SDS011;7888;46.748;8.102;2023-09-30T07:03:29;10.80;;;6.43;;
15573;SDS011;7888;46.748;8.102;2023-09-30T07:05:55;12.10;;;6.53;;
15573;SDS011;7888;46.748;8.102;2023-09-30T07:08:21;11.55;;;6.43;;
15573;SDS011;7888;46.748;8.102;2023-09-30T07:10:47;11.75;;;6.68;;
15573;SDS011;7888;46.748;8.102;2023-09-30T07:13:17;10.02;;;6.18;;
